sensor_id;sensor_type;location;lat;lon;timestamp;pressure;altitude;pressure_sealevel;temperature;humidity
8253;BME280;61313;48.396;10.008;2023-04-03T00:00:07;96797.53;;;5.00;63.92
8253;BME280;61313;48.396;10.008;2023-04-03T00:02:33;96789.47;;;4.58;64.21
8253;BME280;61313;48.396;10.008;2023-04-03T00:04:59;96794.41;;;4.75;64.14
8253;BME280;61313;48.396;10.008;2023-04-03T00:07:25;96792.03;;;4.61;64.49
8253;BME280;61313;48.396;10.008;2023-04-03T00:09:50;96796.09;;;4.17;65.42
8253;BME280;61313;48.396;10.008;2023-04-03T00:12:15;96792.53;;;4.24;64.90
8253;BME280;61313;48.396;10.008;2023-04-03T00:14:41;96793.38;;;4.24;64.05
8253;BME280;61313;48.396;10.008;2023-04-03T00:17:06;96792.84;;;3.99;63.06
8253;BME280;61313;48.396;10.008;2023-04-03T00:19:32;96804.22;;;3.88;63.60
8253;BME280;61313;48.396;10.008;2023-04-03T00:21:57;96797.38;;;3.80;61.60
8253;BME280;61313;48.396;10.008;2023-04-03T00:24:23;96800.97;;;3.69;61.07
8253;BME280;61313;48.396;10.008;2023-04-03T00:26:48;96800.13;;;3.64;61.43
8253;BME280;61313;48.396;10.008;2023-04-03T00:29:13;96798.47;;;3.59;61.93
8253;BME280;61313;48.396;10.008;2023-04-03T00:31:39;96798.59;;;3.46;61.89
8253;BME280;61313;48.396;10.008;2023-04-03T00:34:05;96793.22;;;3.61;61.55
8253;BME280;61313;48.396;10.008;2023-04-03T00:36:30;96801.78;;;3.72;60.48
8253;BME280;61313;48.396;10.008;2023-04-03T00:38:56;96798.38;;;3.66;60.49
8253;BME280;61313;48.396;10.008;2023-04-03T00:41:21;96797.69;;;3.47;60.61
8253;BME280;61313;48.396;10.008;2023-04-03T00:43:47;96804.69;;;3.40;60.95
8253;BME280;61313;48.396;10.008;2023-04-03T00:46:12;96807.34;;;3.35;60.90
8253;BME280;61313;48.396;10.008;2023-04-03T00:48:42;96805.28;;;3.70;59.89
8253;BME280;61313;48.396;10.008;2023-04-03T00:51:23;96803.44;;;3.78;59.51
8253;BME280;61313;48.396;10.008;2023-04-03T00:53:55;96800.84;;;3.79;59.32
8253;BME280;61313;48.396;10.008;2023-04-03T00:56:25;96795.81;;;3.63;59.82
8253;BME280;61313;48.396;10.008;2023-04-03T00:58:55;96793.22;;;3.63;59.50
8253;BME280;61313;48.396;10.008;2023-04-03T01:01:26;96798.38;;;3.69;59.79
8253;BME280;61313;48.396;10.008;2023-04-03T01:03:52;96789.63;;;3.76;59.35
8253;BME280;61313;48.396;10.008;2023-04-03T01:06:22;96797.09;;;4.05;58.41
8253;BME280;61313;48.396;10.008;2023-04-03T01:08:50;96789.47;;;3.90;59.01
8253;BME280;61313;48.396;10.008;2023-04-03T01:11:16;96786.16;;;3.75;59.64
8253;BME280;61313;48.396;10.008;2023-04-03T01:13:42;96782.41;;;4.04;59.57
8253;BME280;61313;48.396;10.008;2023-04-03T01:16:07;96788.66;;;3.88;59.09
8253;BME280;61313;48.396;10.008;2023-04-03T01:18:36;96791.09;;;3.98;57.38
8253;BME280;61313;48.396;10.008;2023-04-03T01:26:15;96798.41;;;3.63;58.01
8253;BME280;61313;48.396;10.008;2023-04-03T01:28:40;96799.75;;;3.99;56.74
8253;BME280;61313;48.396;10.008;2023-04-03T01:33:54;96796.13;;;3.30;57.09
8253;BME280;61313;48.396;10.008;2023-04-03T01:36:26;96801.97;;;3.54;57.44
8253;BME280;61313;48.396;10.008;2023-04-03T01:38:53;96801.91;;;3.58;57.72
8253;BME280;61313;48.396;10.008;2023-04-03T01:41:19;96804.31;;;3.78;55.05
8253;BME280;61313;48.396;10.008;2023-04-03T01:43:47;96805.31;;;3.64;55.55
8253;BME280;61313;48.396;10.008;2023-04-03T01:46:12;96805.94;;;3.89;55.68
8253;BME280;61313;48.396;10.008;2023-04-03T01:48:38;96809.22;;;4.01;54.49
8253;BME280;61313;48.396;10.008;2023-04-03T01:51:04;96811.94;;;3.94;55.29
8253;BME280;61313;48.396;10.008;2023-04-03T01:53:29;96800.47;;;4.12;55.37
8253;BME280;61313;48.396;10.008;2023-04-03T01:55:54;96803.47;;;3.75;54.33
8253;BME280;61313;48.396;10.008;2023-04-03T01:58:20;96805.34;;;3.60;54.82
8253;BME280;61313;48.396;10.008;2023-04-03T02:00:45;96806.91;;;3.77;55.06
8253;BME280;61313;48.396;10.008;2023-04-03T02:03:11;96794.88;;;3.71;55.26
8253;BME280;61313;48.396;10.008;2023-04-03T02:05:36;96803.44;;;3.79;55.33
8253;BME280;61313;48.396;10.008;2023-04-03T02:08:01;96803.19;;;4.04;54.61
8253;BME280;61313;48.396;10.008;2023-04-03T02:10:27;96802.31;;;4.02;54.89
8253;BME280;61313;48.396;10.008;2023-04-03T02:12:52;96796.09;;;4.17;54.22
8253;BME280;61313;48.396;10.008;2023-04-03T02:15:18;96798.63;;;4.20;54.65
8253;BME280;61313;48.396;10.008;2023-04-03T02:17:44;96805.19;;;3.77;55.56
8253;BME280;61313;48.396;10.008;2023-04-03T02:20:10;96807.53;;;4.02;54.75
8253;BME280;61313;48.396;10.008;2023-04-03T02:22:35;96805.94;;;3.90;54.89
8253;BME280;61313;48.396;10.008;2023-04-03T02:25:01;96804.19;;;3.92;55.38
8253;BME280;61313;48.396;10.008;2023-04-03T02:27:27;96799.88;;;3.87;55.53
8253;BME280;61313;48.396;10.008;2023-04-03T02:29:52;96800.66;;;3.96;55.32
8253;BME280;61313;48.396;10.008;2023-04-03T02:32:18;96792.47;;;4.30;54.23
8253;BME280;61313;48.396;10.008;2023-04-03T02:34:43;96794.09;;;4.36;53.91
8253;BME280;61313;48.396;10.008;2023-04-03T02:37:08;96792.28;;;4.42;53.46
8253;BME280;61313;48.396;10.008;2023-04-03T02:39:34;96792.75;;;4.07;54.30
8253;BME280;61313;48.396;10.008;2023-04-03T02:42:00;96798.88;;;4.00;54.65
8253;BME280;61313;48.396;10.008;2023-04-03T02:44:25;96794.44;;;4.10;55.22
8253;BME280;61313;48.396;10.008;2023-04-03T02:46:51;96800.63;;;3.99;55.32
8253;BME280;61313;48.396;10.008;2023-04-03T02:49:16;96791.41;;;3.71;56.98
8253;BME280;61313;48.396;10.008;2023-04-03T02:51:42;96791.25;;;3.86;57.26
8253;BME280;61313;48.396;10.008;2023-04-03T02:54:08;96789.75;;;3.64;57.61
8253;BME280;61313;48.396;10.008;2023-04-03T02:56:33;96802.03;;;4.27;56.33
8253;BME280;61313;48.396;10.008;2023-04-03T02:58:59;96801.44;;;4.03;56.53
8253;BME280;61313;48.396;10.008;2023-04-03T03:01:24;96806.56;;;4.08;56.46
8253;BME280;61313;48.396;10.008;2023-04-03T03:03:52;96803.22;;;3.98;57.03
8253;BME280;61313;48.396;10.008;2023-04-03T03:06:17;96797.19;;;3.96;57.32
8253;BME280;61313;48.396;10.008;2023-04-03T03:08:43;96799.78;;;3.94;56.29
8253;BME280;61313;48.396;10.008;2023-04-03T03:11:09;96793.69;;;4.00;55.73
8253;BME280;61313;48.396;10.008;2023-04-03T03:13:35;96795.06;;;4.29;55.19
8253;BME280;61313;48.396;10.008;2023-04-03T03:16:01;96792.34;;;4.39;53.85
8253;BME280;61313;48.396;10.008;2023-04-03T03:18:27;96791.16;;;4.62;52.12
8253;BME280;61313;48.396;10.008;2023-04-03T03:20:54;96790.75;;;4.28;51.22
8253;BME280;61313;48.396;10.008;2023-04-03T03:23:21;96804.13;;;3.95;52.92
8253;BME280;61313;48.396;10.008;2023-04-03T03:25:47;96796.25;;;4.05;51.86
8253;BME280;61313;48.396;10.008;2023-04-03T03:28:12;96795.88;;;3.56;52.88
8253;BME280;61313;48.396;10.008;2023-04-03T03:30:38;96799.97;;;3.77;50.52
8253;BME280;61313;48.396;10.008;2023-04-03T03:33:03;96797.56;;;3.59;50.84
8253;BME280;61313;48.396;10.008;2023-04-03T03:35:29;96791.25;;;3.88;51.51
8253;BME280;61313;48.396;10.008;2023-04-03T03:37:55;96785.66;;;4.20;50.23
8253;BME280;61313;48.396;10.008;2023-04-03T03:40:20;96788.84;;;4.40;49.39
8253;BME280;61313;48.396;10.008;2023-04-03T03:42:46;96787.16;;;4.39;49.46
8253;BME280;61313;48.396;10.008;2023-04-03T03:45:11;96781.06;;;4.40;50.04
8253;BME280;61313;48.396;10.008;2023-04-03T03:47:37;96786.31;;;4.36;49.94
8253;BME280;61313;48.396;10.008;2023-04-03T03:50:03;96777.41;;;4.54;49.82
8253;BME280;61313;48.396;10.008;2023-04-03T03:52:28;96784.19;;;4.64;49.09
8253;BME280;61313;48.396;10.008;2023-04-03T03:54:55;96780.09;;;4.48;49.76
8253;BME280;61313;48.396;10.008;2023-04-03T03:57:21;96778.88;;;4.73;49.78
8253;BME280;61313;48.396;10.008;2023-04-03T03:59:46;96775.50;;;4.65;49.88
8253;BME280;61313;48.396;10.008;2023-04-03T04:02:14;96777.34;;;4.58;49.12
8253;BME280;61313;48.396;10.008;2023-04-03T04:04:39;96785.34;;;4.41;49.42
8253;BME280;61313;48.396;10.008;2023-04-03T04:07:05;96786.97;;;4.52;49.22
8253;BME280;61313;48.396;10.008;2023-04-03T04:09:30;96785.81;;;4.73;48.87
8253;BME280;61313;48.396;10.008;2023-04-03T04:11:56;96789.41;;;4.62;49.22
8253;BME280;61313;48.396;10.008;2023-04-03T04:14:21;96789.75;;;4.38;49.94
8253;BME280;61313;48.396;10.008;2023-04-03T04:16:47;96790.72;;;4.29;50.43
8253;BME280;61313;48.396;10.008;2023-04-03T04:19:13;96786.38;;;4.33;50.16
8253;BME280;61313;48.396;10.008;2023-04-03T04:21:38;96791.56;;;4.33;50.59
8253;BME280;61313;48.396;10.008;2023-04-03T04:24:05;96787.16;;;4.38;50.21
8253;BME280;61313;48.396;10.008;2023-04-03T04:26:31;96786.25;;;4.40;50.61
8253;BME280;61313;48.396;10.008;2023-04-03T04:28:56;96785.63;;;4.23;50.95
8253;BME280;61313;48.396;10.008;2023-04-03T04:31:22;96794.06;;;4.40;50.14
8253;BME280;61313;48.396;10.008;2023-04-03T04:33:47;96793.19;;;4.40;50.60
8253;BME280;61313;48.396;10.008;2023-04-03T04:36:13;96801.34;;;4.11;51.45
8253;BME280;61313;48.396;10.008;2023-04-03T04:38:40;96791.53;;;4.34;51.57
8253;BME280;61313;48.396;10.008;2023-04-03T04:41:05;96790.38;;;4.55;51.02
8253;BME280;61313;48.396;10.008;2023-04-03T04:43:31;96794.34;;;4.17;52.05
8253;BME280;61313;48.396;10.008;2023-04-03T04:46:03;96796.50;;;3.80;53.64
8253;BME280;61313;48.396;10.008;2023-04-03T04:48:29;96795.59;;;3.86;53.87
8253;BME280;61313;48.396;10.008;2023-04-03T04:50:55;96797.53;;;3.64;55.04
8253;BME280;61313;48.396;10.008;2023-04-03T04:53:20;96794.16;;;3.57;55.66
8253;BME280;61313;48.396;10.008;2023-04-03T04:55:46;96793.13;;;3.70;55.55
8253;BME280;61313;48.396;10.008;2023-04-03T04:58:11;96791.47;;;3.65;55.66
8253;BME280;61313;48.396;10.008;2023-04-03T05:00:37;96789.16;;;3.38;56.70
8253;BME280;61313;48.396;10.008;2023-04-03T05:03:02;96796.75;;;3.55;56.29
8253;BME280;61313;48.396;10.008;2023-04-03T05:05:28;96797.03;;;4.10;54.92
8253;BME280;61313;48.396;10.008;2023-04-03T05:07:53;96788.97;;;3.57;55.80
8253;BME280;61313;48.396;10.008;2023-04-03T05:10:19;96802.44;;;3.91;55.26
8253;BME280;61313;48.396;10.008;2023-04-03T05:12:45;96806.16;;;3.66;56.06
8253;BME280;61313;48.396;10.008;2023-04-03T05:15:11;96806.41;;;3.43;56.86
8253;BME280;61313;48.396;10.008;2023-04-03T05:17:37;96802.97;;;3.39;57.24
8253;BME280;61313;48.396;10.008;2023-04-03T05:20:03;96797.34;;;3.82;56.03
8253;BME280;61313;48.396;10.008;2023-04-03T05:22:29;96802.19;;;4.14;55.01
8253;BME280;61313;48.396;10.008;2023-04-03T05:24:55;96807.38;;;4.13;54.50
8253;BME280;61313;48.396;10.008;2023-04-03T05:27:20;96814.97;;;3.52;56.41
8253;BME280;61313;48.396;10.008;2023-04-03T05:29:46;96804.28;;;3.81;56.23
8253;BME280;61313;48.396;10.008;2023-04-03T05:32:11;96815.72;;;3.62;56.81
8253;BME280;61313;48.396;10.008;2023-04-03T05:34:37;96808.97;;;3.44;56.78
8253;BME280;61313;48.396;10.008;2023-04-03T05:37:02;96812.34;;;3.55;57.24
8253;BME280;61313;48.396;10.008;2023-04-03T05:39:29;96814.97;;;3.51;57.21
8253;BME280;61313;48.396;10.008;2023-04-03T05:41:56;96814.19;;;3.41;57.12
8253;BME280;61313;48.396;10.008;2023-04-03T05:44:22;96816.91;;;3.27;58.23
8253;BME280;61313;48.396;10.008;2023-04-03T05:46:47;96817.75;;;3.29;58.51
8253;BME280;61313;48.396;10.008;2023-04-03T05:49:12;96807.13;;;3.57;58.25
8253;BME280;61313;48.396;10.008;2023-04-03T05:51:38;96815.50;;;3.82;57.40
8253;BME280;61313;48.396;10.008;2023-04-03T05:56:43;96821.94;;;3.46;57.97
8253;BME280;61313;48.396;10.008;2023-04-03T05:59:08;96824.56;;;3.43;58.12
8253;BME280;61313;48.396;10.008;2023-04-03T06:01:34;96826.19;;;3.51;57.70
8253;BME280;61313;48.396;10.008;2023-04-03T06:04:00;96833.00;;;3.65;57.96
8253;BME280;61313;48.396;10.008;2023-04-03T06:06:25;96828.25;;;4.07;56.69
8253;BME280;61313;48.396;10.008;2023-04-03T06:08:51;96838.91;;;3.79;57.20
8253;BME280;61313;48.396;10.008;2023-04-03T06:11:17;96832.94;;;3.72;57.89
8253;BME280;61313;48.396;10.008;2023-04-03T06:13:42;96827.09;;;3.49;58.51
8253;BME280;61313;48.396;10.008;2023-04-03T06:16:11;96840.25;;;3.26;59.46
8253;BME280;61313;48.396;10.008;2023-04-03T06:18:39;96839.00;;;3.68;58.39
8253;BME280;61313;48.396;10.008;2023-04-03T06:21:05;96840.84;;;3.60;59.03
8253;BME280;61313;48.396;10.008;2023-04-03T06:23:30;96837.38;;;3.56;58.74
8253;BME280;61313;48.396;10.008;2023-04-03T06:25:57;96836.28;;;3.82;57.73
8253;BME280;61313;48.396;10.008;2023-04-03T06:28:23;96842.19;;;3.98;57.47
8253;BME280;61313;48.396;10.008;2023-04-03T06:30:48;96842.56;;;3.59;58.02
8253;BME280;61313;48.396;10.008;2023-04-03T06:33:14;96847.25;;;3.17;60.10
8253;BME280;61313;48.396;10.008;2023-04-03T06:35:39;96847.03;;;3.45;60.04
8253;BME280;61313;48.396;10.008;2023-04-03T06:38:05;96845.91;;;3.71;58.94
8253;BME280;61313;48.396;10.008;2023-04-03T06:43:21;96859.22;;;3.34;60.35
8253;BME280;61313;48.396;10.008;2023-04-03T06:45:47;96851.28;;;3.52;59.47
8253;BME280;61313;48.396;10.008;2023-04-03T06:48:12;96855.84;;;3.24;60.35
8253;BME280;61313;48.396;10.008;2023-04-03T06:50:38;96848.69;;;3.49;59.90
8253;BME280;61313;48.396;10.008;2023-04-03T06:53:04;96854.81;;;3.44;60.09
8253;BME280;61313;48.396;10.008;2023-04-03T06:55:29;96858.44;;;3.24;61.07
8253;BME280;61313;48.396;10.008;2023-04-03T06:57:55;96855.66;;;3.44;60.37
8253;BME280;61313;48.396;10.008;2023-04-03T07:00:21;96859.00;;;3.58;59.53
8253;BME280;61313;48.396;10.008;2023-04-03T07:02:46;96856.09;;;2.89;61.56
8253;BME280;61313;48.396;10.008;2023-04-03T07:05:12;96869.69;;;3.20;60.53
8253;BME280;61313;48.396;10.008;2023-04-03T07:07:38;96867.06;;;3.25;60.90
8253;BME280;61313;48.396;10.008;2023-04-03T07:10:05;96866.25;;;3.18;60.65
8253;BME280;61313;48.396;10.008;2023-04-03T07:12:31;96870.59;;;3.16;61.24
8253;BME280;61313;48.396;10.008;2023-04-03T07:14:57;96882.13;;;2.67;62.02
8253;BME280;61313;48.396;10.008;2023-04-03T07:17:22;96887.97;;;3.03;61.90
8253;BME280;61313;48.396;10.008;2023-04-03T07:19:48;96886.88;;;3.38;61.19
8253;BME280;61313;48.396;10.008;2023-04-03T07:22:13;96893.13;;;3.08;61.52
8253;BME280;61313;48.396;10.008;2023-04-03T07:24:39;96890.47;;;3.15;61.20
8253;BME280;61313;48.396;10.008;2023-04-03T07:27:04;96886.09;;;3.25;61.27
8253;BME280;61313;48.396;10.008;2023-04-03T07:29:31;96885.16;;;3.35;60.50
8253;BME280;61313;48.396;10.008;2023-04-03T07:31:56;96884.34;;;3.26;61.04
8253;BME280;61313;48.396;10.008;2023-04-03T07:34:22;96885.81;;;3.62;60.38
8253;BME280;61313;48.396;10.008;2023-04-03T07:36:48;96887.59;;;3.54;60.65
8253;BME280;61313;48.396;10.008;2023-04-03T07:39:13;96897.81;;;3.71;60.42
8253;BME280;61313;48.396;10.008;2023-04-03T07:41:39;96889.81;;;3.94;59.56
8253;BME280;61313;48.396;10.008;2023-04-03T07:44:04;96890.31;;;4.30;58.90
8253;BME280;61313;48.396;10.008;2023-04-03T07:46:31;96892.78;;;3.55;60.16
8253;BME280;61313;48.396;10.008;2023-04-03T07:48:56;96891.69;;;3.78;60.29
8253;BME280;61313;48.396;10.008;2023-04-03T07:51:22;96899.31;;;3.99;59.80
8253;BME280;61313;48.396;10.008;2023-04-03T07:53:49;96885.59;;;3.82;59.91
8253;BME280;61313;48.396;10.008;2023-04-03T07:56:14;96888.47;;;4.39;58.45
8253;BME280;61313;48.396;10.008;2023-04-03T07:58:40;96893.22;;;4.00;58.28
8253;BME280;61313;48.396;10.008;2023-04-03T08:01:05;96905.75;;;3.57;60.21
8253;BME280;61313;48.396;10.008;2023-04-03T08:03:31;96893.72;;;3.45;60.40
8253;BME280;61313;48.396;10.008;2023-04-03T08:06:05;96905.91;;;3.32;60.72
8253;BME280;61313;48.396;10.008;2023-04-03T08:08:30;96898.97;;;3.39;59.68
8253;BME280;61313;48.396;10.008;2023-04-03T08:10:58;96893.88;;;3.27;60.19
8253;BME280;61313;48.396;10.008;2023-04-03T08:13:24;96905.00;;;3.43;60.19
8253;BME280;61313;48.396;10.008;2023-04-03T08:15:49;96903.97;;;3.60;59.81
8253;BME280;61313;48.396;10.008;2023-04-03T08:18:16;96906.53;;;3.67;59.65
8253;BME280;61313;48.396;10.008;2023-04-03T08:20:42;96902.75;;;3.98;59.68
8253;BME280;61313;48.396;10.008;2023-04-03T08:23:08;96896.53;;;4.13;59.11
8253;BME280;61313;48.396;10.008;2023-04-03T08:25:38;96901.69;;;4.21;57.75
8253;BME280;61313;48.396;10.008;2023-04-03T08:28:04;96904.84;;;4.46;57.34
8253;BME280;61313;48.396;10.008;2023-04-03T08:30:52;96903.75;;;4.65;56.71
8253;BME280;61313;48.396;10.008;2023-04-03T08:33:17;96901.69;;;4.18;57.84
8253;BME280;61313;48.396;10.008;2023-04-03T08:35:43;96911.34;;;4.79;56.55
8253;BME280;61313;48.396;10.008;2023-04-03T08:38:09;96911.63;;;4.58;56.87
8253;BME280;61313;48.396;10.008;2023-04-03T08:40:35;96909.66;;;4.01;58.25
8253;BME280;61313;48.396;10.008;2023-04-03T08:45:50;96918.47;;;3.85;59.55
8253;BME280;61313;48.396;10.008;2023-04-03T08:48:33;96920.97;;;3.97;59.30
8253;BME280;61313;48.396;10.008;2023-04-03T08:51:03;96928.09;;;3.72;59.65
8253;BME280;61313;48.396;10.008;2023-04-03T08:53:33;96914.72;;;4.16;58.92
8253;BME280;61313;48.396;10.008;2023-04-03T08:56:07;96920.16;;;3.87;58.28
8253;BME280;61313;48.396;10.008;2023-04-03T08:59:05;96921.88;;;3.90;59.28
8253;BME280;61313;48.396;10.008;2023-04-03T09:01:48;96921.88;;;3.90;59.87
8253;BME280;61313;48.396;10.008;2023-04-03T09:04:15;96927.16;;;3.82;59.09
8253;BME280;61313;48.396;10.008;2023-04-03T09:06:49;96926.97;;;4.02;58.92
8253;BME280;61313;48.396;10.008;2023-04-03T09:12:16;96922.81;;;4.63;57.75
8253;BME280;61313;48.396;10.008;2023-04-03T09:14:52;96918.94;;;4.25;58.06
8253;BME280;61313;48.396;10.008;2023-04-03T09:25:58;96905.88;;;4.33;58.21
8253;BME280;61313;48.396;10.008;2023-04-03T09:28:26;96921.38;;;4.42;57.34
8253;BME280;61313;48.396;10.008;2023-04-03T09:30:52;96913.25;;;4.68;57.30
8253;BME280;61313;48.396;10.008;2023-04-03T09:33:19;96911.88;;;4.38;58.47
8253;BME280;61313;48.396;10.008;2023-04-03T09:35:47;96909.28;;;4.38;58.49
8253;BME280;61313;48.396;10.008;2023-04-03T09:40:48;96914.59;;;4.27;58.71
8253;BME280;61313;48.396;10.008;2023-04-03T09:43:29;96917.22;;;4.26;58.26
8253;BME280;61313;48.396;10.008;2023-04-03T09:48:50;96916.31;;;4.28;58.35
8253;BME280;61313;48.396;10.008;2023-04-03T09:51:16;96915.28;;;4.44;56.70
8253;BME280;61313;48.396;10.008;2023-04-03T09:53:43;96911.88;;;4.39;56.98
8253;BME280;61313;48.396;10.008;2023-04-03T09:58:42;96923.03;;;4.46;57.25
8253;BME280;61313;48.396;10.008;2023-04-03T10:01:28;96925.44;;;4.63;56.91
8253;BME280;61313;48.396;10.008;2023-04-03T10:04:15;96921.41;;;4.36;57.05
8253;BME280;61313;48.396;10.008;2023-04-03T10:06:47;96920.41;;;4.49;56.61
8253;BME280;61313;48.396;10.008;2023-04-03T10:09:22;96917.03;;;4.42;57.32
8253;BME280;61313;48.396;10.008;2023-04-03T10:12:08;96908.66;;;4.88;55.63
8253;BME280;61313;48.396;10.008;2023-04-03T10:14:55;96909.94;;;4.57;55.30
8253;BME280;61313;48.396;10.008;2023-04-03T10:20:00;96906.31;;;4.70;55.58
8253;BME280;61313;48.396;10.008;2023-04-03T10:22:40;96907.38;;;4.52;56.49
8253;BME280;61313;48.396;10.008;2023-04-03T10:28:31;96904.16;;;4.98;55.36
8253;BME280;61313;48.396;10.008;2023-04-03T10:34:10;96914.13;;;4.67;54.32
8253;BME280;61313;48.396;10.008;2023-04-03T10:39:46;96899.19;;;4.84;52.02
8253;BME280;61313;48.396;10.008;2023-04-03T10:45:26;96900.78;;;4.93;50.97
8253;BME280;61313;48.396;10.008;2023-04-03T10:48:04;96896.16;;;4.49;53.05
8253;BME280;61313;48.396;10.008;2023-04-03T10:55:46;96903.59;;;4.76;53.81
8253;BME280;61313;48.396;10.008;2023-04-03T10:58:32;96890.31;;;4.99;53.25
8253;BME280;61313;48.396;10.008;2023-04-03T11:01:05;96901.88;;;4.77;54.83
8253;BME280;61313;48.396;10.008;2023-04-03T11:03:36;96896.28;;;5.04;56.06
8253;BME280;61313;48.396;10.008;2023-04-03T11:06:08;96888.31;;;5.18;54.82
8253;BME280;61313;48.396;10.008;2023-04-03T11:08:44;96899.03;;;5.52;54.82
8253;BME280;61313;48.396;10.008;2023-04-03T11:11:30;96898.81;;;5.68;53.29
8253;BME280;61313;48.396;10.008;2023-04-03T11:14:16;96893.53;;;5.71;52.42
8253;BME280;61313;48.396;10.008;2023-04-03T11:16:47;96878.75;;;5.73;52.85
8253;BME280;61313;48.396;10.008;2023-04-03T11:19:42;96881.25;;;5.79;54.02
8253;BME280;61313;48.396;10.008;2023-04-03T11:24:39;96882.16;;;5.77;53.29
8253;BME280;61313;48.396;10.008;2023-04-03T11:27:21;96872.00;;;5.63;53.50
8253;BME280;61313;48.396;10.008;2023-04-03T11:29:50;96889.50;;;5.53;54.15
8253;BME280;61313;48.396;10.008;2023-04-03T11:35:10;96885.19;;;4.93;53.51
8253;BME280;61313;48.396;10.008;2023-04-03T11:37:40;96893.31;;;4.70;52.75
8253;BME280;61313;48.396;10.008;2023-04-03T11:43:04;96878.34;;;4.87;53.84
8253;BME280;61313;48.396;10.008;2023-04-03T11:45:54;96879.25;;;5.44;52.38
8253;BME280;61313;48.396;10.008;2023-04-03T11:50:59;96877.19;;;5.05;54.31
8253;BME280;61313;48.396;10.008;2023-04-03T11:53:29;96879.84;;;5.04;54.17
8253;BME280;61313;48.396;10.008;2023-04-03T11:55:58;96874.31;;;5.25;54.05
8253;BME280;61313;48.396;10.008;2023-04-03T12:01:42;96877.31;;;4.99;55.37
8253;BME280;61313;48.396;10.008;2023-04-03T12:04:10;96875.69;;;4.91;55.28
8253;BME280;61313;48.396;10.008;2023-04-03T12:09:22;96868.06;;;5.37;53.39
8253;BME280;61313;48.396;10.008;2023-04-03T12:11:48;96864.94;;;5.69;52.44
8253;BME280;61313;48.396;10.008;2023-04-03T12:14:15;96860.03;;;6.02;51.62
8253;BME280;61313;48.396;10.008;2023-04-03T12:16:44;96873.38;;;5.82;52.14
8253;BME280;61313;48.396;10.008;2023-04-03T12:29:25;96862.34;;;5.69;51.05
8253;BME280;61313;48.396;10.008;2023-04-03T12:45:50;96854.16;;;5.38;51.97
8253;BME280;61313;48.396;10.008;2023-04-03T12:48:21;96854.47;;;5.18;52.26
8253;BME280;61313;48.396;10.008;2023-04-03T12:50:49;96840.13;;;5.47;51.49
8253;BME280;61313;48.396;10.008;2023-04-03T12:53:18;96843.75;;;5.88;50.65
8253;BME280;61313;48.396;10.008;2023-04-03T12:55:45;96841.84;;;6.01;49.87
8253;BME280;61313;48.396;10.008;2023-04-03T12:58:24;96837.41;;;5.55;50.93
8253;BME280;61313;48.396;10.008;2023-04-03T13:01:04;96834.56;;;5.67;51.12
8253;BME280;61313;48.396;10.008;2023-04-03T13:03:38;96838.53;;;5.88;50.73
8253;BME280;61313;48.396;10.008;2023-04-03T13:06:04;96839.66;;;5.75;49.98
8253;BME280;61313;48.396;10.008;2023-04-03T13:08:31;96836.53;;;6.05;49.43
8253;BME280;61313;48.396;10.008;2023-04-03T13:11:03;96838.84;;;5.72;49.49
8253;BME280;61313;48.396;10.008;2023-04-03T13:13:31;96848.84;;;5.44;50.12
8253;BME280;61313;48.396;10.008;2023-04-03T13:15:57;96850.19;;;5.14;50.22
8253;BME280;61313;48.396;10.008;2023-04-03T13:18:33;96851.69;;;5.30;50.17
8253;BME280;61313;48.396;10.008;2023-04-03T13:21:30;96852.66;;;5.25;49.92
8253;BME280;61313;48.396;10.008;2023-04-03T13:23:59;96845.56;;;5.33;49.35
8253;BME280;61313;48.396;10.008;2023-04-03T13:26:29;96837.25;;;5.11;49.09
8253;BME280;61313;48.396;10.008;2023-04-03T13:29:03;96848.28;;;5.25;49.08
8253;BME280;61313;48.396;10.008;2023-04-03T13:31:32;96845.13;;;5.06;48.88
8253;BME280;61313;48.396;10.008;2023-04-03T13:34:02;96843.22;;;5.16;49.33
8253;BME280;61313;48.396;10.008;2023-04-03T13:36:33;96845.50;;;5.36;49.63
8253;BME280;61313;48.396;10.008;2023-04-03T13:39:04;96842.16;;;5.29;49.71
8253;BME280;61313;48.396;10.008;2023-04-03T13:41:33;96840.44;;;5.28;49.91
8253;BME280;61313;48.396;10.008;2023-04-03T13:46:53;96840.69;;;5.64;47.46
8253;BME280;61313;48.396;10.008;2023-04-03T13:51:58;96837.84;;;5.78;47.72
8253;BME280;61313;48.396;10.008;2023-04-03T13:54:35;96836.03;;;5.83;47.99
8253;BME280;61313;48.396;10.008;2023-04-03T13:57:02;96827.13;;;5.98;48.01
8253;BME280;61313;48.396;10.008;2023-04-03T13:59:33;96835.38;;;6.19;47.03
8253;BME280;61313;48.396;10.008;2023-04-03T14:04:49;96828.34;;;5.77;45.99
8253;BME280;61313;48.396;10.008;2023-04-03T14:07:16;96827.34;;;5.84;47.04
8253;BME280;61313;48.396;10.008;2023-04-03T14:09:43;96817.78;;;5.83;45.87
8253;BME280;61313;48.396;10.008;2023-04-03T14:12:19;96818.63;;;6.32;44.92
8253;BME280;61313;48.396;10.008;2023-04-03T14:14:46;96808.47;;;6.60;44.53
8253;BME280;61313;48.396;10.008;2023-04-03T14:17:17;96809.34;;;6.61;43.57
8253;BME280;61313;48.396;10.008;2023-04-03T14:19:44;96803.38;;;6.54;43.37
8253;BME280;61313;48.396;10.008;2023-04-03T14:22:31;96812.00;;;6.15;45.38
8253;BME280;61313;48.396;10.008;2023-04-03T14:24:58;96799.88;;;6.14;45.53
8253;BME280;61313;48.396;10.008;2023-04-03T14:27:27;96805.78;;;6.23;45.02
8253;BME280;61313;48.396;10.008;2023-04-03T14:29:55;96800.50;;;6.26;45.24
8253;BME280;61313;48.396;10.008;2023-04-03T14:32:22;96805.88;;;6.18;44.69
8253;BME280;61313;48.396;10.008;2023-04-03T14:34:49;96791.03;;;6.22;43.79
8253;BME280;61313;48.396;10.008;2023-04-03T14:37:26;96793.97;;;6.48;44.11
8253;BME280;61313;48.396;10.008;2023-04-03T14:39:53;96785.44;;;6.81;42.03
8253;BME280;61313;48.396;10.008;2023-04-03T14:42:23;96781.75;;;6.50;42.89
8253;BME280;61313;48.396;10.008;2023-04-03T14:44:50;96787.53;;;6.63;43.24
8253;BME280;61313;48.396;10.008;2023-04-03T14:47:19;96788.00;;;6.82;42.30
8253;BME280;61313;48.396;10.008;2023-04-03T14:49:45;96795.34;;;6.23;43.75
8253;BME280;61313;48.396;10.008;2023-04-03T14:54:43;96795.88;;;5.48;46.03
8253;BME280;61313;48.396;10.008;2023-04-03T14:57:09;96805.38;;;5.51;46.26
8253;BME280;61313;48.396;10.008;2023-04-03T14:59:36;96799.53;;;5.37;46.12
8253;BME280;61313;48.396;10.008;2023-04-03T15:02:02;96795.44;;;5.22;46.10